Mahnomen, Minnesota
Current Conditions -  °F | °C
As of 12:55 AM on Friday 28 Nov 2014 (Local Time) from K3N8 Reporting Station
Overcast Overcast  
Wind Chill: -8°   Ceiling: 5000
Heat Index:   Visibility: 10mi
Dew Point:   Wind: 14mph
Humidity: 78%   Direction: 140°SE
Pressure: 30.04"   Gusts: NA
Location:  47.32°N, 95.97°W
Report Text: K3N8 280655Z AUTO 14012KT 10SM SCT039 OVC050 M13/M16 A3004 RMK AO2 T11301161
Loading
Personal Weather Stations






























Interactive Weather Map New forecast layout! Learn more

10-Day Weather Forecast

Advertisements
Track Severe Weather on mobile